sensor_id;sensor_type;location;lat;lon;timestamp;pressure;altitude;pressure_sealevel;temperature;humidity
49827;BME280;35715;51.570;6.036;2023-03-31T00:00:19;100312.06;;;12.15;86.06
49827;BME280;35715;51.570;6.036;2023-03-31T00:02:45;100310.38;;;12.16;86.19
49827;BME280;35715;51.570;6.036;2023-03-31T00:05:10;100303.66;;;12.19;86.03
49827;BME280;35715;51.570;6.036;2023-03-31T00:07:35;100299.38;;;12.20;86.38
49827;BME280;35715;51.570;6.036;2023-03-31T00:10:08;100292.34;;;12.17;86.98
49827;BME280;35715;51.570;6.036;2023-03-31T00:12:34;100282.50;;;12.27;85.87
49827;BME280;35715;51.570;6.036;2023-03-31T00:15:00;100288.84;;;12.33;85.94
49827;BME280;35715;51.570;6.036;2023-03-31T00:17:25;100285.63;;;12.37;85.73
49827;BME280;35715;51.570;6.036;2023-03-31T00:19:52;100284.91;;;12.40;85.81
49827;BME280;35715;51.570;6.036;2023-03-31T00:22:17;100272.84;;;12.40;86.02
49827;BME280;35715;51.570;6.036;2023-03-31T00:24:46;100270.50;;;12.45;85.66
49827;BME280;35715;51.570;6.036;2023-03-31T00:27:11;100271.06;;;12.39;87.16
49827;BME280;35715;51.570;6.036;2023-03-31T00:29:40;100263.84;;;12.34;87.26
49827;BME280;35715;51.570;6.036;2023-03-31T00:32:08;100257.56;;;12.29;88.34
49827;BME280;35715;51.570;6.036;2023-03-31T00:34:33;100248.09;;;12.29;87.52
49827;BME280;35715;51.570;6.036;2023-03-31T00:36:58;100241.66;;;12.21;89.31
49827;BME280;35715;51.570;6.036;2023-03-31T00:39:26;100243.53;;;12.23;89.59
49827;BME280;35715;51.570;6.036;2023-03-31T00:41:55;100236.03;;;12.12;92.04
49827;BME280;35715;51.570;6.036;2023-03-31T00:44:21;100238.69;;;12.13;91.22
49827;BME280;35715;51.570;6.036;2023-03-31T00:51:48;100211.97;;;11.96;94.21
49827;BME280;35715;51.570;6.036;2023-03-31T00:54:15;100205.88;;;11.96;93.98
49827;BME280;35715;51.570;6.036;2023-03-31T00:56:44;100196.63;;;11.99;93.28
49827;BME280;35715;51.570;6.036;2023-03-31T00:59:12;100185.28;;;11.97;93.63
49827;BME280;35715;51.570;6.036;2023-03-31T01:01:38;100187.06;;;11.98;92.79
49827;BME280;35715;51.570;6.036;2023-03-31T01:04:06;100177.38;;;11.94;93.43
49827;BME280;35715;51.570;6.036;2023-03-31T01:06:33;100178.22;;;11.93;93.11
49827;BME280;35715;51.570;6.036;2023-03-31T01:09:00;100170.34;;;11.92;93.38
49827;BME280;35715;51.570;6.036;2023-03-31T01:13:59;100162.50;;;11.90;93.65
49827;BME280;35715;51.570;6.036;2023-03-31T01:16:25;100150.72;;;11.79;95.20
49827;BME280;35715;51.570;6.036;2023-03-31T01:18:50;100145.78;;;11.83;93.86
49827;BME280;35715;51.570;6.036;2023-03-31T01:42:58;100109.75;;;11.86;94.93
49827;BME280;35715;51.570;6.036;2023-03-31T01:52:51;100109.28;;;11.77;96.03
49827;BME280;35715;51.570;6.036;2023-03-31T01:55:19;100095.31;;;11.74;96.50
49827;BME280;35715;51.570;6.036;2023-03-31T01:57:49;100086.66;;;11.73;96.96
49827;BME280;35715;51.570;6.036;2023-03-31T02:00:23;100090.00;;;11.70;97.98
49827;BME280;35715;51.570;6.036;2023-03-31T02:02:57;100078.69;;;11.68;98.33
49827;BME280;35715;51.570;6.036;2023-03-31T02:05:24;100072.00;;;11.72;97.60
49827;BME280;35715;51.570;6.036;2023-03-31T02:08:08;100068.34;;;11.68;98.35
49827;BME280;35715;51.570;6.036;2023-03-31T02:13:29;100053.94;;;11.56;100.00
49827;BME280;35715;51.570;6.036;2023-03-31T02:18:48;100034.94;;;11.55;100.00
49827;BME280;35715;51.570;6.036;2023-03-31T02:21:17;100025.75;;;11.60;100.00
49827;BME280;35715;51.570;6.036;2023-03-31T02:23:43;100013.94;;;11.65;100.00
49827;BME280;35715;51.570;6.036;2023-03-31T02:26:13;100010.47;;;11.65;100.00
49827;BME280;35715;51.570;6.036;2023-03-31T02:28:40;100001.63;;;11.60;100.00
49827;BME280;35715;51.570;6.036;2023-03-31T02:33:39;99980.19;;;11.62;100.00
49827;BME280;35715;51.570;6.036;2023-03-31T02:36:04;99973.50;;;11.66;100.00
49827;BME280;35715;51.570;6.036;2023-03-31T02:38:35;99962.41;;;11.68;100.00
49827;BME280;35715;51.570;6.036;2023-03-31T02:41:02;99957.31;;;11.70;100.00
49827;BME280;35715;51.570;6.036;2023-03-31T02:43:27;99950.31;;;11.67;100.00
49827;BME280;35715;51.570;6.036;2023-03-31T02:45:52;99941.00;;;11.71;100.00
49827;BME280;35715;51.570;6.036;2023-03-31T02:48:26;99936.56;;;11.68;100.00
49827;BME280;35715;51.570;6.036;2023-03-31T02:56:27;99914.22;;;11.69;100.00
49827;BME280;35715;51.570;6.036;2023-03-31T02:58:59;99901.59;;;11.75;100.00
49827;BME280;35715;51.570;6.036;2023-03-31T03:01:50;99906.81;;;11.77;100.00
49827;BME280;35715;51.570;6.036;2023-03-31T03:12:21;99862.75;;;11.74;100.00
49827;BME280;35715;51.570;6.036;2023-03-31T03:14:50;99853.34;;;11.76;100.00
49827;BME280;35715;51.570;6.036;2023-03-31T03:17:24;99846.41;;;11.75;100.00
49827;BME280;35715;51.570;6.036;2023-03-31T03:22:32;99835.25;;;11.76;99.41
49827;BME280;35715;51.570;6.036;2023-03-31T03:24:58;99834.78;;;11.65;100.00
49827;BME280;35715;51.570;6.036;2023-03-31T03:27:23;99823.91;;;11.72;100.00
49827;BME280;35715;51.570;6.036;2023-03-31T03:29:53;99817.78;;;11.70;100.00
49827;BME280;35715;51.570;6.036;2023-03-31T03:32:18;99812.75;;;11.73;100.00
49827;BME280;35715;51.570;6.036;2023-03-31T03:34:44;99810.84;;;11.69;100.00
49827;BME280;35715;51.570;6.036;2023-03-31T03:37:09;99809.22;;;11.71;100.00
49827;BME280;35715;51.570;6.036;2023-03-31T03:39:36;99812.66;;;11.71;100.00
49827;BME280;35715;51.570;6.036;2023-03-31T03:42:01;99808.94;;;11.65;100.00
49827;BME280;35715;51.570;6.036;2023-03-31T03:44:26;99815.31;;;11.73;100.00
49827;BME280;35715;51.570;6.036;2023-03-31T03:46:52;99793.84;;;11.74;100.00
49827;BME280;35715;51.570;6.036;2023-03-31T03:49:17;99794.44;;;11.68;100.00
49827;BME280;35715;51.570;6.036;2023-03-31T03:51:42;99784.94;;;11.67;100.00
49827;BME280;35715;51.570;6.036;2023-03-31T03:54:07;99781.25;;;11.62;100.00
49827;BME280;35715;51.570;6.036;2023-03-31T03:56:33;99779.72;;;11.66;100.00
49827;BME280;35715;51.570;6.036;2023-03-31T03:58:58;99769.16;;;11.61;100.00
49827;BME280;35715;51.570;6.036;2023-03-31T04:01:24;99762.28;;;11.62;100.00
49827;BME280;35715;51.570;6.036;2023-03-31T04:03:50;99755.53;;;11.65;100.00
49827;BME280;35715;51.570;6.036;2023-03-31T04:06:15;99741.09;;;11.69;100.00
49827;BME280;35715;51.570;6.036;2023-03-31T04:08:40;99736.88;;;11.71;100.00
49827;BME280;35715;51.570;6.036;2023-03-31T04:13:50;99720.69;;;11.75;98.87
49827;BME280;35715;51.570;6.036;2023-03-31T04:16:15;99724.88;;;11.73;98.84
49827;BME280;35715;51.570;6.036;2023-03-31T04:18:41;99709.31;;;11.71;98.13
49827;BME280;35715;51.570;6.036;2023-03-31T04:24:01;99690.09;;;11.65;98.67
49827;BME280;35715;51.570;6.036;2023-03-31T04:26:28;99689.28;;;11.66;98.43
49827;BME280;35715;51.570;6.036;2023-03-31T04:29:07;99672.94;;;11.67;98.61
49827;BME280;35715;51.570;6.036;2023-03-31T04:31:37;99668.03;;;11.73;97.63
49827;BME280;35715;51.570;6.036;2023-03-31T04:34:07;99673.47;;;11.79;96.92
49827;BME280;35715;51.570;6.036;2023-03-31T04:36:37;99665.72;;;11.79;96.86
49827;BME280;35715;51.570;6.036;2023-03-31T04:39:06;99659.47;;;11.74;96.94
49827;BME280;35715;51.570;6.036;2023-03-31T04:44:04;99649.94;;;11.73;96.84
49827;BME280;35715;51.570;6.036;2023-03-31T04:46:29;99647.50;;;11.76;96.32
49827;BME280;35715;51.570;6.036;2023-03-31T04:48:55;99643.31;;;11.78;96.23
49827;BME280;35715;51.570;6.036;2023-03-31T04:51:27;99644.72;;;11.71;96.45
49827;BME280;35715;51.570;6.036;2023-03-31T04:53:53;99626.69;;;11.73;96.66
49827;BME280;35715;51.570;6.036;2023-03-31T04:56:18;99617.13;;;11.70;96.37
49827;BME280;35715;51.570;6.036;2023-03-31T04:58:43;99616.28;;;11.71;96.09
49827;BME280;35715;51.570;6.036;2023-03-31T05:03:42;99607.00;;;11.75;96.07
49827;BME280;35715;51.570;6.036;2023-03-31T05:06:07;99598.25;;;11.73;95.78
49827;BME280;35715;51.570;6.036;2023-03-31T05:08:33;99605.03;;;11.69;95.57
49827;BME280;35715;51.570;6.036;2023-03-31T05:10:58;99593.94;;;11.72;95.53
49827;BME280;35715;51.570;6.036;2023-03-31T05:13:23;99588.06;;;11.76;95.51
49827;BME280;35715;51.570;6.036;2023-03-31T05:15:49;99589.44;;;11.68;95.07
49827;BME280;35715;51.570;6.036;2023-03-31T05:18:16;99579.91;;;11.67;94.92
49827;BME280;35715;51.570;6.036;2023-03-31T05:20:49;99574.75;;;11.67;94.89
49827;BME280;35715;51.570;6.036;2023-03-31T05:23:15;99567.72;;;11.63;94.64
49827;BME280;35715;51.570;6.036;2023-03-31T05:25:40;99567.72;;;11.63;94.30
49827;BME280;35715;51.570;6.036;2023-03-31T05:28:06;99564.84;;;11.57;93.88
49827;BME280;35715;51.570;6.036;2023-03-31T05:30:31;99559.00;;;11.61;93.56
49827;BME280;35715;51.570;6.036;2023-03-31T05:32:57;99559.59;;;11.55;93.93
49827;BME280;35715;51.570;6.036;2023-03-31T05:35:22;99572.31;;;11.50;93.76
49827;BME280;35715;51.570;6.036;2023-03-31T05:37:47;99570.72;;;11.52;93.47
49827;BME280;35715;51.570;6.036;2023-03-31T05:40:13;99570.59;;;11.49;93.78
49827;BME280;35715;51.570;6.036;2023-03-31T05:42:38;99578.13;;;11.45;93.64
49827;BME280;35715;51.570;6.036;2023-03-31T05:45:03;99559.00;;;11.41;94.63
49827;BME280;35715;51.570;6.036;2023-03-31T05:47:29;99551.47;;;11.46;94.08
49827;BME280;35715;51.570;6.036;2023-03-31T05:50:05;99536.88;;;11.46;94.27
49827;BME280;35715;51.570;6.036;2023-03-31T05:52:32;99545.50;;;11.47;93.99
49827;BME280;35715;51.570;6.036;2023-03-31T05:54:58;99534.50;;;11.51;93.76
49827;BME280;35715;51.570;6.036;2023-03-31T05:57:23;99542.38;;;11.54;95.66
49827;BME280;35715;51.570;6.036;2023-03-31T05:59:49;99536.41;;;11.57;95.35
49827;BME280;35715;51.570;6.036;2023-03-31T06:02:15;99525.41;;;11.61;95.00
49827;BME280;35715;51.570;6.036;2023-03-31T06:04:41;99524.34;;;11.56;95.05
49827;BME280;35715;51.570;6.036;2023-03-31T06:07:07;99515.44;;;11.49;96.13
49827;BME280;35715;51.570;6.036;2023-03-31T06:09:34;99510.91;;;11.43;96.49
49827;BME280;35715;51.570;6.036;2023-03-31T06:11:59;99508.34;;;11.43;97.40
49827;BME280;35715;51.570;6.036;2023-03-31T06:14:25;99514.25;;;11.41;96.95
49827;BME280;35715;51.570;6.036;2023-03-31T06:16:51;99511.66;;;11.41;97.24
49827;BME280;35715;51.570;6.036;2023-03-31T06:19:16;99513.25;;;11.37;96.70
49827;BME280;35715;51.570;6.036;2023-03-31T06:21:41;99502.56;;;11.29;97.87
49827;BME280;35715;51.570;6.036;2023-03-31T06:24:07;99506.91;;;11.30;98.49
49827;BME280;35715;51.570;6.036;2023-03-31T06:26:33;99500.75;;;11.27;98.64
49827;BME280;35715;51.570;6.036;2023-03-31T06:28:58;99495.44;;;11.24;99.23
49827;BME280;35715;51.570;6.036;2023-03-31T06:31:25;99487.78;;;11.25;99.32
49827;BME280;35715;51.570;6.036;2023-03-31T06:33:50;99496.53;;;11.29;99.24
49827;BME280;35715;51.570;6.036;2023-03-31T06:36:17;99486.81;;;11.23;99.37
49827;BME280;35715;51.570;6.036;2023-03-31T06:38:42;99476.00;;;11.12;100.00
49827;BME280;35715;51.570;6.036;2023-03-31T06:41:15;99463.44;;;11.20;100.00
49827;BME280;35715;51.570;6.036;2023-03-31T06:43:41;99462.44;;;11.16;100.00
49827;BME280;35715;51.570;6.036;2023-03-31T06:46:07;99449.72;;;11.21;100.00
49827;BME280;35715;51.570;6.036;2023-03-31T06:48:32;99460.09;;;11.23;100.00
49827;BME280;35715;51.570;6.036;2023-03-31T06:51:08;99446.59;;;11.28;100.00
49827;BME280;35715;51.570;6.036;2023-03-31T06:53:33;99457.78;;;11.29;100.00
49827;BME280;35715;51.570;6.036;2023-03-31T06:55:59;99452.63;;;11.29;100.00
49827;BME280;35715;51.570;6.036;2023-03-31T06:58:25;99449.44;;;11.34;100.00
49827;BME280;35715;51.570;6.036;2023-03-31T07:00:51;99447.78;;;11.36;100.00
49827;BME280;35715;51.570;6.036;2023-03-31T07:03:17;99443.09;;;11.28;100.00
49827;BME280;35715;51.570;6.036;2023-03-31T07:05:47;99434.47;;;11.27;100.00
49827;BME280;35715;51.570;6.036;2023-03-31T07:08:12;99444.75;;;11.26;100.00
49827;BME280;35715;51.570;6.036;2023-03-31T07:13:05;99445.50;;;11.23;100.00
49827;BME280;35715;51.570;6.036;2023-03-31T07:15:31;99439.66;;;11.27;100.00
49827;BME280;35715;51.570;6.036;2023-03-31T07:17:56;99440.44;;;11.26;100.00
49827;BME280;35715;51.570;6.036;2023-03-31T07:20:36;99443.88;;;11.25;100.00
49827;BME280;35715;51.570;6.036;2023-03-31T07:23:03;99438.78;;;11.27;100.00
49827;BME280;35715;51.570;6.036;2023-03-31T07:25:29;99434.47;;;11.27;100.00
49827;BME280;35715;51.570;6.036;2023-03-31T07:27:56;99432.22;;;11.35;100.00
49827;BME280;35715;51.570;6.036;2023-03-31T07:30:22;99432.47;;;11.41;100.00
49827;BME280;35715;51.570;6.036;2023-03-31T07:32:49;99433.38;;;11.42;100.00
49827;BME280;35715;51.570;6.036;2023-03-31T07:35:15;99432.53;;;11.43;100.00
49827;BME280;35715;51.570;6.036;2023-03-31T07:37:41;99431.78;;;11.45;100.00
49827;BME280;35715;51.570;6.036;2023-03-31T07:40:10;99432.78;;;11.49;100.00
49827;BME280;35715;51.570;6.036;2023-03-31T07:42:36;99432.03;;;11.51;100.00
49827;BME280;35715;51.570;6.036;2023-03-31T07:45:01;99434.75;;;11.54;100.00
49827;BME280;35715;51.570;6.036;2023-03-31T07:47:26;99434.75;;;11.54;100.00
49827;BME280;35715;51.570;6.036;2023-03-31T07:50:02;99434.00;;;11.57;100.00
49827;BME280;35715;51.570;6.036;2023-03-31T07:52:27;99436.59;;;11.57;100.00
49827;BME280;35715;51.570;6.036;2023-03-31T07:54:53;99433.81;;;11.52;100.00
49827;BME280;35715;51.570;6.036;2023-03-31T07:57:18;99418.88;;;11.45;100.00
49827;BME280;35715;51.570;6.036;2023-03-31T07:59:43;99417.16;;;11.46;100.00
49827;BME280;35715;51.570;6.036;2023-03-31T08:02:13;99412.97;;;11.48;100.00
49827;BME280;35715;51.570;6.036;2023-03-31T08:04:39;99416.16;;;11.42;100.00
49827;BME280;35715;51.570;6.036;2023-03-31T08:07:06;99410.06;;;11.40;100.00
49827;BME280;35715;51.570;6.036;2023-03-31T08:09:39;99402.38;;;11.42;100.00
49827;BME280;35715;51.570;6.036;2023-03-31T08:12:06;99387.94;;;11.47;100.00
49827;BME280;35715;51.570;6.036;2023-03-31T08:14:32;99389.28;;;11.37;100.00
49827;BME280;35715;51.570;6.036;2023-03-31T08:16:57;99378.91;;;11.35;100.00
49827;BME280;35715;51.570;6.036;2023-03-31T08:19:24;99436.25;;;11.28;100.00
49827;BME280;35715;51.570;6.036;2023-03-31T08:21:49;99420.16;;;11.34;100.00
49827;BME280;35715;51.570;6.036;2023-03-31T08:24:16;99416.66;;;11.33;100.00
49827;BME280;35715;51.570;6.036;2023-03-31T08:26:41;99426.31;;;11.38;100.00
49827;BME280;35715;51.570;6.036;2023-03-31T08:29:07;99414.28;;;11.38;100.00
49827;BME280;35715;51.570;6.036;2023-03-31T08:31:33;99415.41;;;11.45;100.00
49827;BME280;35715;51.570;6.036;2023-03-31T08:33:58;99405.41;;;11.52;100.00
49827;BME280;35715;51.570;6.036;2023-03-31T08:36:24;99400.66;;;11.63;100.00
49827;BME280;35715;51.570;6.036;2023-03-31T08:38:49;99393.28;;;11.72;99.08
49827;BME280;35715;51.570;6.036;2023-03-31T08:46:59;99385.75;;;12.00;99.68
49827;BME280;35715;51.570;6.036;2023-03-31T08:49:26;99381.84;;;12.11;99.97
49827;BME280;35715;51.570;6.036;2023-03-31T08:51:57;99381.59;;;12.28;99.37
49827;BME280;35715;51.570;6.036;2023-03-31T08:54:33;99386.41;;;12.65;99.87
49827;BME280;35715;51.570;6.036;2023-03-31T08:57:01;99384.16;;;13.00;98.84
49827;BME280;35715;51.570;6.036;2023-03-31T08:59:28;99382.97;;;13.40;97.65
49827;BME280;35715;51.570;6.036;2023-03-31T09:02:02;99373.13;;;13.57;96.58
49827;BME280;35715;51.570;6.036;2023-03-31T09:07:14;99368.03;;;13.60;92.82
49827;BME280;35715;51.570;6.036;2023-03-31T09:15:27;99350.91;;;13.38;91.52
49827;BME280;35715;51.570;6.036;2023-03-31T09:17:53;99352.41;;;13.31;92.00
49827;BME280;35715;51.570;6.036;2023-03-31T09:20:31;99355.19;;;13.36;91.76
49827;BME280;35715;51.570;6.036;2023-03-31T09:23:03;99344.97;;;13.41;92.24
49827;BME280;35715;51.570;6.036;2023-03-31T09:25:35;99347.47;;;13.38;92.79
49827;BME280;35715;51.570;6.036;2023-03-31T09:28:02;99339.31;;;13.27;93.71
49827;BME280;35715;51.570;6.036;2023-03-31T09:33:14;99360.25;;;13.07;96.18
49827;BME280;35715;51.570;6.036;2023-03-31T09:35:41;99350.28;;;13.20;95.45
49827;BME280;35715;51.570;6.036;2023-03-31T09:38:08;99355.38;;;13.17;93.18
49827;BME280;35715;51.570;6.036;2023-03-31T09:45:32;99350.91;;;13.38;91.84
49827;BME280;35715;51.570;6.036;2023-03-31T09:48:00;99339.75;;;13.39;90.17
49827;BME280;35715;51.570;6.036;2023-03-31T09:50:26;99342.13;;;13.60;90.81
49827;BME280;35715;51.570;6.036;2023-03-31T09:52:57;99337.38;;;13.74;88.08
49827;BME280;35715;51.570;6.036;2023-03-31T09:55:24;99334.25;;;13.86;86.38
49827;BME280;35715;51.570;6.036;2023-03-31T09:57:51;99339.81;;;13.98;85.36
49827;BME280;35715;51.570;6.036;2023-03-31T10:00:18;99336.19;;;14.22;84.92
49827;BME280;35715;51.570;6.036;2023-03-31T10:05:31;99327.59;;;14.55;81.33
49827;BME280;35715;51.570;6.036;2023-03-31T10:13:09;99316.97;;;14.78;77.04
49827;BME280;35715;51.570;6.036;2023-03-31T10:15:38;99315.84;;;14.68;76.83
49827;BME280;35715;51.570;6.036;2023-03-31T10:18:03;99319.28;;;14.68;78.03
49827;BME280;35715;51.570;6.036;2023-03-31T10:22:54;99318.03;;;14.54;74.95
49827;BME280;35715;51.570;6.036;2023-03-31T10:25:20;99312.44;;;14.38;75.60
49827;BME280;35715;51.570;6.036;2023-03-31T10:27:50;99315.81;;;14.36;77.06
49827;BME280;35715;51.570;6.036;2023-03-31T10:30:21;99322.31;;;14.22;77.80
49827;BME280;35715;51.570;6.036;2023-03-31T10:32:47;99318.75;;;14.18;76.35
49827;BME280;35715;51.570;6.036;2023-03-31T10:35:24;99318.38;;;14.34;78.35
49827;BME280;35715;51.570;6.036;2023-03-31T10:37:52;99304.41;;;14.29;74.81
49827;BME280;35715;51.570;6.036;2023-03-31T10:40:27;99306.25;;;14.35;76.26
49827;BME280;35715;51.570;6.036;2023-03-31T10:43:05;99309.63;;;14.61;75.98
49827;BME280;35715;51.570;6.036;2023-03-31T10:45:35;99305.88;;;14.53;74.86
49827;BME280;35715;51.570;6.036;2023-03-31T10:48:01;99307.56;;;14.51;76.14
49827;BME280;35715;51.570;6.036;2023-03-31T10:50:29;99294.56;;;14.49;75.58
49827;BME280;35715;51.570;6.036;2023-03-31T10:53:03;99299.31;;;14.64;75.14
49827;BME280;35715;51.570;6.036;2023-03-31T10:55:35;99301.94;;;14.66;75.53
49827;BME280;35715;51.570;6.036;2023-03-31T11:14:32;99298.38;;;14.62;72.23
49827;BME280;35715;51.570;6.036;2023-03-31T11:39:09;99259.78;;;15.11;69.61
49827;BME280;35715;51.570;6.036;2023-03-31T11:46:10;99253.97;;;15.23;71.58
49827;BME280;35715;51.570;6.036;2023-03-31T11:48:39;99255.53;;;15.15;69.92
49827;BME280;35715;51.570;6.036;2023-03-31T11:51:13;99259.56;;;15.02;69.40
49827;BME280;35715;51.570;6.036;2023-03-31T11:53:40;99254.81;;;15.20;70.86
49827;BME280;35715;51.570;6.036;2023-03-31T11:56:07;99253.19;;;15.65;72.07
49827;BME280;35715;51.570;6.036;2023-03-31T11:58:36;99246.25;;;15.64;68.13
49827;BME280;35715;51.570;6.036;2023-03-31T12:01:46;99241.06;;;15.64;68.85
49827;BME280;35715;51.570;6.036;2023-03-31T12:03:55;99243.47;;;15.55;69.10
49827;BME280;35715;51.570;6.036;2023-03-31T12:06:22;99239.94;;;15.53;68.06
49827;BME280;35715;51.570;6.036;2023-03-31T12:11:28;99233.44;;;15.73;68.33
49827;BME280;35715;51.570;6.036;2023-03-31T12:14:07;99233.25;;;15.64;66.97
49827;BME280;35715;51.570;6.036;2023-03-31T12:16:39;99230.94;;;15.37;67.22
49827;BME280;35715;51.570;6.036;2023-03-31T12:24:18;99219.56;;;15.33;67.83
49827;BME280;35715;51.570;6.036;2023-03-31T12:31:55;99206.84;;;15.85;65.12
49827;BME280;35715;51.570;6.036;2023-03-31T12:34:21;99207.91;;;15.95;66.45
49827;BME280;35715;51.570;6.036;2023-03-31T12:37:07;99207.72;;;15.86;65.65
49827;BME280;35715;51.570;6.036;2023-03-31T12:50:07;99202.91;;;16.56;64.88
49827;BME280;35715;51.570;6.036;2023-03-31T13:14:20;99170.94;;;16.13;64.30
49827;BME280;35715;51.570;6.036;2023-03-31T13:16:47;99163.44;;;16.31;64.74
49827;BME280;35715;51.570;6.036;2023-03-31T13:19:32;99160.00;;;16.32;64.37
49827;BME280;35715;51.570;6.036;2023-03-31T13:21:58;99153.59;;;16.13;63.25
49827;BME280;35715;51.570;6.036;2023-03-31T13:24:25;99149.78;;;15.93;61.74
49827;BME280;35715;51.570;6.036;2023-03-31T13:26:51;99145.34;;;15.89;61.50
49827;BME280;35715;51.570;6.036;2023-03-31T13:39:33;99158.88;;;15.30;64.85
49827;BME280;35715;51.570;6.036;2023-03-31T13:42:26;99155.91;;;15.13;67.14
49827;BME280;35715;51.570;6.036;2023-03-31T13:45:03;99160.75;;;14.97;67.96
49827;BME280;35715;51.570;6.036;2023-03-31T13:47:35;99158.22;;;15.00;68.96
49827;BME280;35715;51.570;6.036;2023-03-31T13:52:52;99175.66;;;14.34;78.04
49827;BME280;35715;51.570;6.036;2023-03-31T14:00:29;99152.06;;;14.60;79.58
49827;BME280;35715;51.570;6.036;2023-03-31T14:08:13;99137.69;;;14.38;76.28
49827;BME280;35715;51.570;6.036;2023-03-31T14:10:41;99130.50;;;14.26;76.44
49827;BME280;35715;51.570;6.036;2023-03-31T14:13:08;99129.34;;;14.15;76.10
49827;BME280;35715;51.570;6.036;2023-03-31T14:15:38;99146.75;;;13.86;74.64
49827;BME280;35715;51.570;6.036;2023-03-31T14:18:04;99144.09;;;13.84;79.21
49827;BME280;35715;51.570;6.036;2023-03-31T14:30:38;99141.38;;;14.11;77.86
49827;BME280;35715;51.570;6.036;2023-03-31T14:36:22;99138.78;;;14.11;78.98
49827;BME280;35715;51.570;6.036;2023-03-31T14:38:52;99140.44;;;14.09;80.25
49827;BME280;35715;51.570;6.036;2023-03-31T14:41:18;99134.56;;;14.16;80.06
49827;BME280;35715;51.570;6.036;2023-03-31T14:43:46;99137.31;;;14.23;78.98
49827;BME280;35715;51.570;6.036;2023-03-31T14:46:17;99127.91;;;14.26;80.25
49827;BME280;35715;51.570;6.036;2023-03-31T14:48:43;99120.66;;;14.13;76.66
49827;BME280;35715;51.570;6.036;2023-03-31T14:51:10;99125.50;;;14.34;78.66
49827;BME280;35715;51.570;6.036;2023-03-31T14:53:35;99102.38;;;14.43;76.73
49827;BME280;35715;51.570;6.036;2023-03-31T14:56:08;99121.22;;;14.36;76.21
49827;BME280;35715;51.570;6.036;2023-03-31T14:58:36;99122.03;;;14.35;76.36
49827;BME280;35715;51.570;6.036;2023-03-31T15:01:03;99115.69;;;14.22;76.08
49827;BME280;35715;51.570;6.036;2023-03-31T15:03:30;99111.81;;;14.06;76.89
49827;BME280;35715;51.570;6.036;2023-03-31T15:05:57;99116.97;;;14.05;76.98
49827;BME280;35715;51.570;6.036;2023-03-31T15:08:24;99109.09;;;14.01;77.04
49827;BME280;35715;51.570;6.036;2023-03-31T15:13:25;99112.72;;;13.73;76.92
49827;BME280;35715;51.570;6.036;2023-03-31T15:15:52;99120.34;;;13.69;77.63
49827;BME280;35715;51.570;6.036;2023-03-31T15:18:17;99123.03;;;13.72;78.36
49827;BME280;35715;51.570;6.036;2023-03-31T15:20:43;99124.34;;;13.57;78.38
49827;BME280;35715;51.570;6.036;2023-03-31T15:23:22;99131.81;;;13.77;79.34
49827;BME280;35715;51.570;6.036;2023-03-31T15:25:55;99115.44;;;13.78;79.38
49827;BME280;35715;51.570;6.036;2023-03-31T15:28:21;99119.44;;;13.66;78.04
49827;BME280;35715;51.570;6.036;2023-03-31T15:30:47;99117.97;;;13.76;78.98
49827;BME280;35715;51.570;6.036;2023-03-31T15:33:18;99111.38;;;13.89;78.52
49827;BME280;35715;51.570;6.036;2023-03-31T15:35:45;99109.06;;;14.00;77.59
49827;BME280;35715;51.570;6.036;2023-03-31T15:38:11;99107.38;;;14.00;76.31
49827;BME280;35715;51.570;6.036;2023-03-31T15:40:40;99112.59;;;14.02;75.37
49827;BME280;35715;51.570;6.036;2023-03-31T15:45:37;99110.75;;;13.98;77.07
49827;BME280;35715;51.570;6.036;2023-03-31T15:48:04;99112.63;;;14.04;78.08
49827;BME280;35715;51.570;6.036;2023-03-31T15:50:31;99116.03;;;14.01;78.23
49827;BME280;35715;51.570;6.036;2023-03-31T15:52:57;99130.16;;;13.80;79.77
49827;BME280;35715;51.570;6.036;2023-03-31T15:55:23;99126.41;;;13.69;80.27
49827;BME280;35715;51.570;6.036;2023-03-31T15:57:50;99117.44;;;13.58;82.03
49827;BME280;35715;51.570;6.036;2023-03-31T16:03:01;99123.84;;;13.39;82.88
49827;BME280;35715;51.570;6.036;2023-03-31T16:07:58;99117.38;;;13.26;83.75
49827;BME280;35715;51.570;6.036;2023-03-31T16:10:23;99126.47;;;13.11;84.86
49827;BME280;35715;51.570;6.036;2023-03-31T16:12:53;99119.91;;;12.94;84.74
49827;BME280;35715;51.570;6.036;2023-03-31T16:15:20;99115.78;;;12.99;87.26
49827;BME280;35715;51.570;6.036;2023-03-31T16:20:35;99118.06;;;12.90;87.09
49827;BME280;35715;51.570;6.036;2023-03-31T16:23:01;99118.94;;;12.90;86.73
49827;BME280;35715;51.570;6.036;2023-03-31T16:25:28;99107.94;;;12.98;86.40
49827;BME280;35715;51.570;6.036;2023-03-31T16:27:57;99108.97;;;13.03;86.40
49827;BME280;35715;51.570;6.036;2023-03-31T16:30:57;99115.00;;;13.03;85.81
49827;BME280;35715;51.570;6.036;2023-03-31T16:33:16;99114.22;;;13.06;84.71
49827;BME280;35715;51.570;6.036;2023-03-31T16:35:43;99111.69;;;13.07;84.72
49827;BME280;35715;51.570;6.036;2023-03-31T16:38:10;99110.09;;;13.12;84.30
49827;BME280;35715;51.570;6.036;2023-03-31T16:40:40;99110.09;;;13.12;83.22
49827;BME280;35715;51.570;6.036;2023-03-31T16:45:37;99101.72;;;13.21;82.71
49827;BME280;35715;51.570;6.036;2023-03-31T16:48:03;99103.00;;;13.05;82.35
49827;BME280;35715;51.570;6.036;2023-03-31T16:50:29;99099.44;;;13.02;83.86
49827;BME280;35715;51.570;6.036;2023-03-31T16:52:54;99101.84;;;12.95;83.89
49827;BME280;35715;51.570;6.036;2023-03-31T16:55:20;99096.47;;;12.89;83.79
49827;BME280;35715;51.570;6.036;2023-03-31T17:00:14;99103.63;;;12.69;85.76
49827;BME280;35715;51.570;6.036;2023-03-31T17:02:39;99103.34;;;12.60;85.48
49827;BME280;35715;51.570;6.036;2023-03-31T17:05:05;99098.63;;;12.47;86.70
49827;BME280;35715;51.570;6.036;2023-03-31T17:07:30;99092.81;;;12.54;86.58